sensor_id;sensor_type;location;lat;lon;timestamp;temperature;humidity
13482;DHT22;6813;60.352;15.746;2022-07-15T00:00:37;14.20;93.40
13482;DHT22;6813;60.352;15.746;2022-07-15T00:03:03;14.10;93.50
13482;DHT22;6813;60.352;15.746;2022-07-15T00:05:29;14.00;93.50
13482;DHT22;6813;60.352;15.746;2022-07-15T00:07:55;14.10;93.40
13482;DHT22;6813;60.352;15.746;2022-07-15T00:10:24;14.10;93.20
13482;DHT22;6813;60.352;15.746;2022-07-15T00:12:50;14.10;92.60
13482;DHT22;6813;60.352;15.746;2022-07-15T00:15:23;14.10;92.50
13482;DHT22;6813;60.352;15.746;2022-07-15T00:17:49;14.00;92.30
13482;DHT22;6813;60.352;15.746;2022-07-15T00:20:16;14.00;92.80
13482;DHT22;6813;60.352;15.746;2022-07-15T00:22:42;13.80;92.80
13482;DHT22;6813;60.352;15.746;2022-07-15T00:25:09;13.80;93.00
13482;DHT22;6813;60.352;15.746;2022-07-15T00:27:35;13.90;93.00
13482;DHT22;6813;60.352;15.746;2022-07-15T00:30:04;13.90;92.80
13482;DHT22;6813;60.352;15.746;2022-07-15T00:32:30;13.90;92.80
13482;DHT22;6813;60.352;15.746;2022-07-15T00:34:55;13.90;92.70
13482;DHT22;6813;60.352;15.746;2022-07-15T00:37:21;13.90;92.70
13482;DHT22;6813;60.352;15.746;2022-07-15T00:39:47;14.00;92.80
13482;DHT22;6813;60.352;15.746;2022-07-15T00:42:13;14.00;92.70
13482;DHT22;6813;60.352;15.746;2022-07-15T00:45:00;13.90;92.40
13482;DHT22;6813;60.352;15.746;2022-07-15T00:47:26;13.80;92.40
13482;DHT22;6813;60.352;15.746;2022-07-15T00:49:51;13.80;92.70
13482;DHT22;6813;60.352;15.746;2022-07-15T00:52:18;13.70;92.60
13482;DHT22;6813;60.352;15.746;2022-07-15T00:54:49;13.70;92.40
13482;DHT22;6813;60.352;15.746;2022-07-15T00:57:16;13.50;92.50
13482;DHT22;6813;60.352;15.746;2022-07-15T00:59:44;13.40;92.90
13482;DHT22;6813;60.352;15.746;2022-07-15T01:02:11;13.40;92.90
13482;DHT22;6813;60.352;15.746;2022-07-15T01:04:38;13.30;93.10
13482;DHT22;6813;60.352;15.746;2022-07-15T01:07:04;13.30;92.90
13482;DHT22;6813;60.352;15.746;2022-07-15T01:09:30;13.20;93.10
13482;DHT22;6813;60.352;15.746;2022-07-15T01:11:56;13.10;93.10
13482;DHT22;6813;60.352;15.746;2022-07-15T01:14:22;13.00;93.40
13482;DHT22;6813;60.352;15.746;2022-07-15T01:16:47;12.90;93.20
13482;DHT22;6813;60.352;15.746;2022-07-15T01:19:13;12.90;93.20
13482;DHT22;6813;60.352;15.746;2022-07-15T01:21:39;13.00;93.40
13482;DHT22;6813;60.352;15.746;2022-07-15T01:24:05;12.90;93.30
13482;DHT22;6813;60.352;15.746;2022-07-15T01:26:31;13.00;93.20
13482;DHT22;6813;60.352;15.746;2022-07-15T01:28:57;13.00;93.10
13482;DHT22;6813;60.352;15.746;2022-07-15T01:31:22;13.00;93.20
13482;DHT22;6813;60.352;15.746;2022-07-15T01:33:48;13.10;93.10
13482;DHT22;6813;60.352;15.746;2022-07-15T01:36:14;13.20;92.80
13482;DHT22;6813;60.352;15.746;2022-07-15T01:38:40;13.10;93.00
13482;DHT22;6813;60.352;15.746;2022-07-15T01:41:05;13.10;92.90
13482;DHT22;6813;60.352;15.746;2022-07-15T01:43:31;13.20;92.90
13482;DHT22;6813;60.352;15.746;2022-07-15T01:45:57;13.20;93.00
13482;DHT22;6813;60.352;15.746;2022-07-15T01:48:22;13.10;92.70
13482;DHT22;6813;60.352;15.746;2022-07-15T01:51:07;13.10;92.50
13482;DHT22;6813;60.352;15.746;2022-07-15T01:53:33;13.10;92.80
13482;DHT22;6813;60.352;15.746;2022-07-15T01:55:59;12.90;92.50
13482;DHT22;6813;60.352;15.746;2022-07-15T01:58:24;13.00;92.70
13482;DHT22;6813;60.352;15.746;2022-07-15T02:00:50;12.90;93.00
13482;DHT22;6813;60.352;15.746;2022-07-15T02:03:16;12.90;92.90
13482;DHT22;6813;60.352;15.746;2022-07-15T02:05:42;12.80;93.10
13482;DHT22;6813;60.352;15.746;2022-07-15T02:08:08;12.80;92.60
13482;DHT22;6813;60.352;15.746;2022-07-15T02:10:34;12.70;92.90
13482;DHT22;6813;60.352;15.746;2022-07-15T02:13:10;12.80;93.10
13482;DHT22;6813;60.352;15.746;2022-07-15T02:15:38;12.70;93.00
13482;DHT22;6813;60.352;15.746;2022-07-15T02:18:04;12.70;93.00
13482;DHT22;6813;60.352;15.746;2022-07-15T02:20:31;12.70;92.90
13482;DHT22;6813;60.352;15.746;2022-07-15T02:22:57;12.70;92.80
13482;DHT22;6813;60.352;15.746;2022-07-15T02:25:27;12.70;92.60
13482;DHT22;6813;60.352;15.746;2022-07-15T02:28:01;12.60;92.70
13482;DHT22;6813;60.352;15.746;2022-07-15T02:30:29;12.50;92.90
13482;DHT22;6813;60.352;15.746;2022-07-15T02:32:56;12.60;92.70
13482;DHT22;6813;60.352;15.746;2022-07-15T02:35:22;12.40;92.80
13482;DHT22;6813;60.352;15.746;2022-07-15T02:37:48;12.30;93.10
13482;DHT22;6813;60.352;15.746;2022-07-15T02:40:13;12.40;92.90
13482;DHT22;6813;60.352;15.746;2022-07-15T02:42:39;12.40;92.90
13482;DHT22;6813;60.352;15.746;2022-07-15T02:45:10;12.30;93.10
13482;DHT22;6813;60.352;15.746;2022-07-15T02:47:36;12.20;93.10
13482;DHT22;6813;60.352;15.746;2022-07-15T02:50:02;12.20;93.30
13482;DHT22;6813;60.352;15.746;2022-07-15T02:52:28;12.30;93.10
13482;DHT22;6813;60.352;15.746;2022-07-15T02:54:53;12.40;93.10
13482;DHT22;6813;60.352;15.746;2022-07-15T02:57:19;12.30;93.00
13482;DHT22;6813;60.352;15.746;2022-07-15T02:59:45;12.40;92.90
13482;DHT22;6813;60.352;15.746;2022-07-15T03:02:12;12.40;92.70
13482;DHT22;6813;60.352;15.746;2022-07-15T03:04:38;12.40;93.10
13482;DHT22;6813;60.352;15.746;2022-07-15T03:07:03;12.40;93.00
13482;DHT22;6813;60.352;15.746;2022-07-15T03:09:29;12.40;92.80
13482;DHT22;6813;60.352;15.746;2022-07-15T03:11:55;12.40;93.00
13482;DHT22;6813;60.352;15.746;2022-07-15T03:14:20;12.40;93.00
13482;DHT22;6813;60.352;15.746;2022-07-15T03:16:46;12.40;93.00
13482;DHT22;6813;60.352;15.746;2022-07-15T03:19:12;12.30;93.30
13482;DHT22;6813;60.352;15.746;2022-07-15T03:21:37;12.30;93.30
13482;DHT22;6813;60.352;15.746;2022-07-15T03:24:03;12.30;93.40
13482;DHT22;6813;60.352;15.746;2022-07-15T03:26:29;12.40;93.30
13482;DHT22;6813;60.352;15.746;2022-07-15T03:28:55;12.30;93.20
13482;DHT22;6813;60.352;15.746;2022-07-15T03:31:23;12.30;93.50
13482;DHT22;6813;60.352;15.746;2022-07-15T03:33:48;12.30;93.70
13482;DHT22;6813;60.352;15.746;2022-07-15T03:36:14;12.40;93.60
13482;DHT22;6813;60.352;15.746;2022-07-15T03:38:40;12.40;93.80
13482;DHT22;6813;60.352;15.746;2022-07-15T03:41:05;12.30;94.00
13482;DHT22;6813;60.352;15.746;2022-07-15T03:43:32;12.40;94.10
13482;DHT22;6813;60.352;15.746;2022-07-15T03:45:57;12.30;93.90
13482;DHT22;6813;60.352;15.746;2022-07-15T03:48:23;12.30;94.20
13482;DHT22;6813;60.352;15.746;2022-07-15T03:50:49;12.50;94.00
13482;DHT22;6813;60.352;15.746;2022-07-15T03:53:14;12.60;94.10
13482;DHT22;6813;60.352;15.746;2022-07-15T03:55:40;12.50;93.80
13482;DHT22;6813;60.352;15.746;2022-07-15T03:58:06;12.50;94.30
13482;DHT22;6813;60.352;15.746;2022-07-15T04:00:32;12.50;94.20
13482;DHT22;6813;60.352;15.746;2022-07-15T04:02:57;12.60;93.90
13482;DHT22;6813;60.352;15.746;2022-07-15T04:05:23;12.50;94.10
13482;DHT22;6813;60.352;15.746;2022-07-15T04:07:49;12.60;93.90
13482;DHT22;6813;60.352;15.746;2022-07-15T04:10:15;12.60;94.00
13482;DHT22;6813;60.352;15.746;2022-07-15T04:12:41;12.70;95.00
13482;DHT22;6813;60.352;15.746;2022-07-15T04:15:07;12.80;94.30
13482;DHT22;6813;60.352;15.746;2022-07-15T04:17:34;13.10;93.90
13482;DHT22;6813;60.352;15.746;2022-07-15T04:20:00;13.30;93.50
13482;DHT22;6813;60.352;15.746;2022-07-15T04:22:26;13.60;92.80
13482;DHT22;6813;60.352;15.746;2022-07-15T04:24:51;13.80;92.70
13482;DHT22;6813;60.352;15.746;2022-07-15T04:27:18;13.80;93.00
13482;DHT22;6813;60.352;15.746;2022-07-15T04:29:43;13.90;92.40
13482;DHT22;6813;60.352;15.746;2022-07-15T04:32:09;13.90;92.30
13482;DHT22;6813;60.352;15.746;2022-07-15T04:34:35;13.90;92.10
13482;DHT22;6813;60.352;15.746;2022-07-15T04:37:01;13.90;92.20
13482;DHT22;6813;60.352;15.746;2022-07-15T04:39:27;13.80;92.50
13482;DHT22;6813;60.352;15.746;2022-07-15T04:41:53;13.80;92.30
13482;DHT22;6813;60.352;15.746;2022-07-15T04:44:19;13.80;92.70
13482;DHT22;6813;60.352;15.746;2022-07-15T04:46:45;13.90;92.40
13482;DHT22;6813;60.352;15.746;2022-07-15T04:49:12;13.90;92.40
13482;DHT22;6813;60.352;15.746;2022-07-15T04:51:56;13.80;92.20
13482;DHT22;6813;60.352;15.746;2022-07-15T04:54:22;13.70;92.10
13482;DHT22;6813;60.352;15.746;2022-07-15T04:56:48;13.80;92.60
13482;DHT22;6813;60.352;15.746;2022-07-15T04:59:14;13.80;92.90
13482;DHT22;6813;60.352;15.746;2022-07-15T05:01:39;13.80;92.70
13482;DHT22;6813;60.352;15.746;2022-07-15T05:04:05;13.80;92.70
13482;DHT22;6813;60.352;15.746;2022-07-15T05:06:31;13.90;93.00
13482;DHT22;6813;60.352;15.746;2022-07-15T05:08:56;14.10;92.80
13482;DHT22;6813;60.352;15.746;2022-07-15T05:11:22;14.30;92.40
13482;DHT22;6813;60.352;15.746;2022-07-15T05:13:48;14.50;92.60
13482;DHT22;6813;60.352;15.746;2022-07-15T05:16:13;14.80;91.90
13482;DHT22;6813;60.352;15.746;2022-07-15T05:18:39;15.00;92.00
13482;DHT22;6813;60.352;15.746;2022-07-15T05:21:05;15.10;91.00
13482;DHT22;6813;60.352;15.746;2022-07-15T05:23:31;15.10;91.00
13482;DHT22;6813;60.352;15.746;2022-07-15T05:25:57;15.10;91.40
13482;DHT22;6813;60.352;15.746;2022-07-15T05:28:23;15.00;90.40
13482;DHT22;6813;60.352;15.746;2022-07-15T05:30:49;15.00;91.00
13482;DHT22;6813;60.352;15.746;2022-07-15T05:33:18;14.90;90.90
13482;DHT22;6813;60.352;15.746;2022-07-15T05:35:44;14.70;90.80
13482;DHT22;6813;60.352;15.746;2022-07-15T05:38:11;14.80;90.90
13482;DHT22;6813;60.352;15.746;2022-07-15T05:40:36;14.90;90.90
13482;DHT22;6813;60.352;15.746;2022-07-15T05:43:02;14.90;91.80
13482;DHT22;6813;60.352;15.746;2022-07-15T05:45:28;14.90;91.20
13482;DHT22;6813;60.352;15.746;2022-07-15T05:47:54;14.90;91.10
13482;DHT22;6813;60.352;15.746;2022-07-15T05:50:20;15.00;91.00
13482;DHT22;6813;60.352;15.746;2022-07-15T05:52:46;15.00;91.00
13482;DHT22;6813;60.352;15.746;2022-07-15T05:55:12;15.00;91.30
13482;DHT22;6813;60.352;15.746;2022-07-15T05:57:38;15.10;91.80
13482;DHT22;6813;60.352;15.746;2022-07-15T06:00:05;15.00;91.80
13482;DHT22;6813;60.352;15.746;2022-07-15T06:02:31;14.80;91.00
13482;DHT22;6813;60.352;15.746;2022-07-15T06:04:57;14.80;91.80
13482;DHT22;6813;60.352;15.746;2022-07-15T06:07:23;14.90;91.60
13482;DHT22;6813;60.352;15.746;2022-07-15T06:09:49;14.90;90.50
13482;DHT22;6813;60.352;15.746;2022-07-15T06:12:17;15.00;91.30
13482;DHT22;6813;60.352;15.746;2022-07-15T06:14:43;14.90;90.90
13482;DHT22;6813;60.352;15.746;2022-07-15T06:17:09;15.00;91.00
13482;DHT22;6813;60.352;15.746;2022-07-15T06:19:35;15.10;90.50
13482;DHT22;6813;60.352;15.746;2022-07-15T06:22:00;15.10;90.40
13482;DHT22;6813;60.352;15.746;2022-07-15T06:24:26;15.00;90.40
13482;DHT22;6813;60.352;15.746;2022-07-15T06:26:52;15.10;90.30
13482;DHT22;6813;60.352;15.746;2022-07-15T06:29:18;15.20;90.00
13482;DHT22;6813;60.352;15.746;2022-07-15T06:31:44;15.30;90.00
13482;DHT22;6813;60.352;15.746;2022-07-15T06:34:10;15.20;89.40
13482;DHT22;6813;60.352;15.746;2022-07-15T06:36:36;15.20;89.50
13482;DHT22;6813;60.352;15.746;2022-07-15T06:39:02;15.00;90.00
13482;DHT22;6813;60.352;15.746;2022-07-15T06:41:29;14.90;90.10
13482;DHT22;6813;60.352;15.746;2022-07-15T06:43:55;14.80;90.30
13482;DHT22;6813;60.352;15.746;2022-07-15T06:46:21;14.80;90.40
13482;DHT22;6813;60.352;15.746;2022-07-15T06:48:46;14.90;90.20
13482;DHT22;6813;60.352;15.746;2022-07-15T06:51:12;15.00;90.30
13482;DHT22;6813;60.352;15.746;2022-07-15T06:53:38;15.00;90.60
13482;DHT22;6813;60.352;15.746;2022-07-15T06:56:04;14.80;90.30
13482;DHT22;6813;60.352;15.746;2022-07-15T06:58:29;14.80;90.60
13482;DHT22;6813;60.352;15.746;2022-07-15T07:00:55;14.80;90.90
13482;DHT22;6813;60.352;15.746;2022-07-15T07:03:21;14.70;90.20
13482;DHT22;6813;60.352;15.746;2022-07-15T07:05:47;14.70;90.40
13482;DHT22;6813;60.352;15.746;2022-07-15T07:08:12;14.60;90.40
13482;DHT22;6813;60.352;15.746;2022-07-15T07:10:38;14.60;90.20
13482;DHT22;6813;60.352;15.746;2022-07-15T07:13:04;14.50;90.60
13482;DHT22;6813;60.352;15.746;2022-07-15T07:15:29;14.60;90.60
13482;DHT22;6813;60.352;15.746;2022-07-15T07:17:55;14.70;90.40
13482;DHT22;6813;60.352;15.746;2022-07-15T07:20:21;14.80;90.40
13482;DHT22;6813;60.352;15.746;2022-07-15T07:22:47;14.80;90.00
13482;DHT22;6813;60.352;15.746;2022-07-15T07:25:12;15.00;89.20
13482;DHT22;6813;60.352;15.746;2022-07-15T07:27:38;15.10;87.80
13482;DHT22;6813;60.352;15.746;2022-07-15T07:30:04;15.20;88.20
13482;DHT22;6813;60.352;15.746;2022-07-15T07:32:31;15.10;86.60
13482;DHT22;6813;60.352;15.746;2022-07-15T07:34:57;15.10;86.30
13482;DHT22;6813;60.352;15.746;2022-07-15T07:37:22;15.10;86.90
13482;DHT22;6813;60.352;15.746;2022-07-15T07:39:49;15.20;86.40
13482;DHT22;6813;60.352;15.746;2022-07-15T07:42:15;15.20;86.40
13482;DHT22;6813;60.352;15.746;2022-07-15T07:44:41;15.40;85.90
13482;DHT22;6813;60.352;15.746;2022-07-15T07:47:08;15.50;85.60
13482;DHT22;6813;60.352;15.746;2022-07-15T07:49:35;15.70;85.00
13482;DHT22;6813;60.352;15.746;2022-07-15T07:52:01;15.80;84.90
13482;DHT22;6813;60.352;15.746;2022-07-15T07:54:28;15.90;83.80
13482;DHT22;6813;60.352;15.746;2022-07-15T07:56:55;16.00;84.00
13482;DHT22;6813;60.352;15.746;2022-07-15T07:59:21;16.00;83.80
13482;DHT22;6813;60.352;15.746;2022-07-15T08:01:47;16.10;83.30
13482;DHT22;6813;60.352;15.746;2022-07-15T08:04:12;16.10;83.30
13482;DHT22;6813;60.352;15.746;2022-07-15T08:06:40;16.10;83.00
13482;DHT22;6813;60.352;15.746;2022-07-15T08:09:06;16.10;82.90
13482;DHT22;6813;60.352;15.746;2022-07-15T08:11:32;16.00;83.80
13482;DHT22;6813;60.352;15.746;2022-07-15T08:13:57;16.10;82.40
13482;DHT22;6813;60.352;15.746;2022-07-15T08:16:23;16.10;82.20
13482;DHT22;6813;60.352;15.746;2022-07-15T08:18:49;16.10;83.30
13482;DHT22;6813;60.352;15.746;2022-07-15T08:21:15;15.90;83.60
13482;DHT22;6813;60.352;15.746;2022-07-15T08:23:41;16.00;82.80
13482;DHT22;6813;60.352;15.746;2022-07-15T08:26:06;15.90;82.80
13482;DHT22;6813;60.352;15.746;2022-07-15T08:28:34;16.10;82.80
13482;DHT22;6813;60.352;15.746;2022-07-15T08:31:00;16.10;82.40
13482;DHT22;6813;60.352;15.746;2022-07-15T08:33:25;16.00;83.80
13482;DHT22;6813;60.352;15.746;2022-07-15T08:35:51;15.90;83.40
13482;DHT22;6813;60.352;15.746;2022-07-15T08:38:17;16.00;83.20
13482;DHT22;6813;60.352;15.746;2022-07-15T08:40:43;16.20;84.20
13482;DHT22;6813;60.352;15.746;2022-07-15T08:43:10;16.20;83.40
13482;DHT22;6813;60.352;15.746;2022-07-15T08:45:37;16.20;83.80
13482;DHT22;6813;60.352;15.746;2022-07-15T08:48:05;16.30;85.70
13482;DHT22;6813;60.352;15.746;2022-07-15T08:50:32;16.20;87.50
13482;DHT22;6813;60.352;15.746;2022-07-15T08:52:58;16.30;88.50
13482;DHT22;6813;60.352;15.746;2022-07-15T08:55:24;16.20;90.20
13482;DHT22;6813;60.352;15.746;2022-07-15T08:57:51;16.20;89.00
13482;DHT22;6813;60.352;15.746;2022-07-15T09:00:20;16.00;89.50
13482;DHT22;6813;60.352;15.746;2022-07-15T09:02:48;16.00;89.30
13482;DHT22;6813;60.352;15.746;2022-07-15T09:10:26;15.90;91.40
13482;DHT22;6813;60.352;15.746;2022-07-15T09:13:05;15.90;90.20
13482;DHT22;6813;60.352;15.746;2022-07-15T09:15:36;15.80;91.70
13482;DHT22;6813;60.352;15.746;2022-07-15T09:18:14;15.90;91.10
13482;DHT22;6813;60.352;15.746;2022-07-15T09:20:43;16.10;90.40
13482;DHT22;6813;60.352;15.746;2022-07-15T09:23:10;16.40;89.50
13482;DHT22;6813;60.352;15.746;2022-07-15T09:25:38;16.50;87.80
13482;DHT22;6813;60.352;15.746;2022-07-15T09:28:06;16.50;86.10
13482;DHT22;6813;60.352;15.746;2022-07-15T09:30:35;16.60;86.00
13482;DHT22;6813;60.352;15.746;2022-07-15T09:33:25;16.60;86.10
13482;DHT22;6813;60.352;15.746;2022-07-15T09:36:25;16.40;87.70
13482;DHT22;6813;60.352;15.746;2022-07-15T09:39:09;16.20;86.40
13482;DHT22;6813;60.352;15.746;2022-07-15T09:41:37;16.30;87.10
13482;DHT22;6813;60.352;15.746;2022-07-15T09:44:06;16.40;86.00
13482;DHT22;6813;60.352;15.746;2022-07-15T09:46:55;16.60;86.30
13482;DHT22;6813;60.352;15.746;2022-07-15T09:51:55;16.40;85.20
13482;DHT22;6813;60.352;15.746;2022-07-15T09:54:26;16.10;84.50
13482;DHT22;6813;60.352;15.746;2022-07-15T09:56:56;16.10;87.30
13482;DHT22;6813;60.352;15.746;2022-07-15T09:59:24;16.10;88.30
13482;DHT22;6813;60.352;15.746;2022-07-15T10:01:50;16.30;86.90
13482;DHT22;6813;60.352;15.746;2022-07-15T10:04:18;16.40;87.20
13482;DHT22;6813;60.352;15.746;2022-07-15T10:06:46;16.20;86.40
13482;DHT22;6813;60.352;15.746;2022-07-15T10:09:12;16.40;87.20
13482;DHT22;6813;60.352;15.746;2022-07-15T10:11:46;16.40;86.70
13482;DHT22;6813;60.352;15.746;2022-07-15T10:18:39;16.40;86.40
13482;DHT22;6813;60.352;15.746;2022-07-15T10:23:30;16.40;86.90
13482;DHT22;6813;60.352;15.746;2022-07-15T10:29:06;16.50;86.70
13482;DHT22;6813;60.352;15.746;2022-07-15T10:31:33;16.40;87.00
13482;DHT22;6813;60.352;15.746;2022-07-15T10:37:03;16.20;86.70
13482;DHT22;6813;60.352;15.746;2022-07-15T10:42:16;15.90;87.20
13482;DHT22;6813;60.352;15.746;2022-07-15T10:47:26;15.80;87.10
13482;DHT22;6813;60.352;15.746;2022-07-15T10:49:53;15.60;86.60
13482;DHT22;6813;60.352;15.746;2022-07-15T10:52:21;15.80;87.20
13482;DHT22;6813;60.352;15.746;2022-07-15T11:00:27;15.90;86.60
13482;DHT22;6813;60.352;15.746;2022-07-15T11:03:16;16.00;85.70
13482;DHT22;6813;60.352;15.746;2022-07-15T11:13:43;16.00;89.30
13482;DHT22;6813;60.352;15.746;2022-07-15T11:16:13;15.90;90.40
13482;DHT22;6813;60.352;15.746;2022-07-15T11:18:47;15.80;90.10
13482;DHT22;6813;60.352;15.746;2022-07-15T11:21:13;15.60;89.80
13482;DHT22;6813;60.352;15.746;2022-07-15T11:23:39;15.60;90.00
13482;DHT22;6813;60.352;15.746;2022-07-15T11:26:05;15.90;89.10
13482;DHT22;6813;60.352;15.746;2022-07-15T11:28:30;16.00;89.00
13482;DHT22;6813;60.352;15.746;2022-07-15T11:30:56;16.10;89.60
13482;DHT22;6813;60.352;15.746;2022-07-15T11:33:24;16.00;88.50
13482;DHT22;6813;60.352;15.746;2022-07-15T11:36:00;16.10;87.70
13482;DHT22;6813;60.352;15.746;2022-07-15T11:38:31;16.30;86.90
13482;DHT22;6813;60.352;15.746;2022-07-15T11:41:00;16.40;85.50
13482;DHT22;6813;60.352;15.746;2022-07-15T11:43:49;16.40;83.50
13482;DHT22;6813;60.352;15.746;2022-07-15T11:46:43;16.40;84.10
13482;DHT22;6813;60.352;15.746;2022-07-15T11:49:09;16.50;84.70
13482;DHT22;6813;60.352;15.746;2022-07-15T11:51:35;16.60;84.30
13482;DHT22;6813;60.352;15.746;2022-07-15T11:54:02;16.70;82.80
13482;DHT22;6813;60.352;15.746;2022-07-15T11:56:28;16.70;84.40
13482;DHT22;6813;60.352;15.746;2022-07-15T11:58:56;16.70;84.50
13482;DHT22;6813;60.352;15.746;2022-07-15T12:01:29;16.90;83.10
13482;DHT22;6813;60.352;15.746;2022-07-15T12:04:06;17.00;82.30
13482;DHT22;6813;60.352;15.746;2022-07-15T12:06:33;16.90;83.00
13482;DHT22;6813;60.352;15.746;2022-07-15T12:09:00;16.90;83.10
13482;DHT22;6813;60.352;15.746;2022-07-15T12:11:46;16.90;82.60
13482;DHT22;6813;60.352;15.746;2022-07-15T12:14:17;17.10;80.50
13482;DHT22;6813;60.352;15.746;2022-07-15T12:16:45;17.20;81.00
13482;DHT22;6813;60.352;15.746;2022-07-15T12:21:49;17.30;81.40
13482;DHT22;6813;60.352;15.746;2022-07-15T12:24:17;17.10;81.00
13482;DHT22;6813;60.352;15.746;2022-07-15T12:29:22;16.90;81.70
13482;DHT22;6813;60.352;15.746;2022-07-15T12:31:54;17.00;82.40
13482;DHT22;6813;60.352;15.746;2022-07-15T12:34:20;17.10;82.20
13482;DHT22;6813;60.352;15.746;2022-07-15T12:36:55;17.10;81.30
13482;DHT22;6813;60.352;15.746;2022-07-15T12:39:21;17.00;80.90
13482;DHT22;6813;60.352;15.746;2022-07-15T12:42:08;17.10;81.20
13482;DHT22;6813;60.352;15.746;2022-07-15T12:44:35;17.00;83.10
13482;DHT22;6813;60.352;15.746;2022-07-15T12:47:04;17.00;83.50
13482;DHT22;6813;60.352;15.746;2022-07-15T12:55:23;16.70;85.60
13482;DHT22;6813;60.352;15.746;2022-07-15T12:57:47;16.60;84.90
13482;DHT22;6813;60.352;15.746;2022-07-15T13:00:22;16.40;86.90
13482;DHT22;6813;60.352;15.746;2022-07-15T13:03:11;16.30;88.00
13482;DHT22;6813;60.352;15.746;2022-07-15T13:05:45;16.20;87.30
13482;DHT22;6813;60.352;15.746;2022-07-15T13:08:31;16.40;86.10
13482;DHT22;6813;60.352;15.746;2022-07-15T13:11:02;16.70;85.80
13482;DHT22;6813;60.352;15.746;2022-07-15T13:13:32;16.90;85.20
13482;DHT22;6813;60.352;15.746;2022-07-15T13:15:58;17.10;83.70
13482;DHT22;6813;60.352;15.746;2022-07-15T13:18:24;17.40;82.80
13482;DHT22;6813;60.352;15.746;2022-07-15T13:20:52;17.40;82.10
13482;DHT22;6813;60.352;15.746;2022-07-15T13:23:18;17.40;81.40
13482;DHT22;6813;60.352;15.746;2022-07-15T13:25:44;17.30;84.30
13482;DHT22;6813;60.352;15.746;2022-07-15T13:28:11;17.00;84.90
13482;DHT22;6813;60.352;15.746;2022-07-15T13:30:37;16.60;85.00
13482;DHT22;6813;60.352;15.746;2022-07-15T13:33:04;16.70;85.30
13482;DHT22;6813;60.352;15.746;2022-07-15T13:35:30;16.80;83.50
13482;DHT22;6813;60.352;15.746;2022-07-15T13:37:56;16.90;83.00
13482;DHT22;6813;60.352;15.746;2022-07-15T13:40:21;17.10;82.80
13482;DHT22;6813;60.352;15.746;2022-07-15T13:42:47;16.80;81.30
13482;DHT22;6813;60.352;15.746;2022-07-15T13:45:14;16.90;83.00
13482;DHT22;6813;60.352;15.746;2022-07-15T13:47:40;16.90;83.00
13482;DHT22;6813;60.352;15.746;2022-07-15T13:50:08;17.10;82.50
13482;DHT22;6813;60.352;15.746;2022-07-15T13:52:55;17.20;81.40
13482;DHT22;6813;60.352;15.746;2022-07-15T13:55:21;17.20;80.60
13482;DHT22;6813;60.352;15.746;2022-07-15T13:57:47;17.00;81.10
13482;DHT22;6813;60.352;15.746;2022-07-15T14:00:15;17.00;81.20
13482;DHT22;6813;60.352;15.746;2022-07-15T14:02:45;16.90;82.00
13482;DHT22;6813;60.352;15.746;2022-07-15T14:05:12;16.90;81.60
13482;DHT22;6813;60.352;15.746;2022-07-15T14:07:38;16.80;82.40
13482;DHT22;6813;60.352;15.746;2022-07-15T14:10:04;16.90;81.70
13482;DHT22;6813;60.352;15.746;2022-07-15T14:12:30;16.90;80.60
13482;DHT22;6813;60.352;15.746;2022-07-15T14:14:56;16.70;80.70
13482;DHT22;6813;60.352;15.746;2022-07-15T14:17:22;16.90;80.80
13482;DHT22;6813;60.352;15.746;2022-07-15T14:19:48;17.00;80.70
13482;DHT22;6813;60.352;15.746;2022-07-15T14:22:13;17.00;79.90
13482;DHT22;6813;60.352;15.746;2022-07-15T14:24:39;17.10;79.00
13482;DHT22;6813;60.352;15.746;2022-07-15T14:27:05;17.10;79.60
13482;DHT22;6813;60.352;15.746;2022-07-15T14:29:31;16.90;79.80
13482;DHT22;6813;60.352;15.746;2022-07-15T14:31:57;16.60;79.50
13482;DHT22;6813;60.352;15.746;2022-07-15T14:34:23;16.70;81.70
13482;DHT22;6813;60.352;15.746;2022-07-15T14:36:49;16.50;79.80
13482;DHT22;6813;60.352;15.746;2022-07-15T14:39:15;16.40;81.50
13482;DHT22;6813;60.352;15.746;2022-07-15T14:41:41;16.20;83.00
13482;DHT22;6813;60.352;15.746;2022-07-15T14:44:07;16.40;81.30
13482;DHT22;6813;60.352;15.746;2022-07-15T14:46:34;16.40;81.40
13482;DHT22;6813;60.352;15.746;2022-07-15T14:48:59;16.50;82.30
13482;DHT22;6813;60.352;15.746;2022-07-15T14:51:25;16.50;83.60
13482;DHT22;6813;60.352;15.746;2022-07-15T14:53:51;16.40;82.50
13482;DHT22;6813;60.352;15.746;2022-07-15T14:56:17;16.40;82.50
13482;DHT22;6813;60.352;15.746;2022-07-15T14:58:42;16.50;83.10
13482;DHT22;6813;60.352;15.746;2022-07-15T15:01:09;16.50;82.60
13482;DHT22;6813;60.352;15.746;2022-07-15T15:03:34;16.60;83.30
13482;DHT22;6813;60.352;15.746;2022-07-15T15:06:00;16.60;81.70
13482;DHT22;6813;60.352;15.746;2022-07-15T15:08:26;16.60;81.60
13482;DHT22;6813;60.352;15.746;2022-07-15T15:10:52;16.50;81.60
13482;DHT22;6813;60.352;15.746;2022-07-15T15:13:18;16.40;81.70
13482;DHT22;6813;60.352;15.746;2022-07-15T15:15:44;16.30;80.80
13482;DHT22;6813;60.352;15.746;2022-07-15T15:18:10;16.30;82.70
13482;DHT22;6813;60.352;15.746;2022-07-15T15:20:35;16.30;81.70
13482;DHT22;6813;60.352;15.746;2022-07-15T15:23:01;16.40;81.90
13482;DHT22;6813;60.352;15.746;2022-07-15T15:25:27;16.40;82.30
13482;DHT22;6813;60.352;15.746;2022-07-15T15:28:12;16.30;81.60
13482;DHT22;6813;60.352;15.746;2022-07-15T15:30:38;16.30;82.40
13482;DHT22;6813;60.352;15.746;2022-07-15T15:33:04;16.40;82.50
13482;DHT22;6813;60.352;15.746;2022-07-15T15:35:30;16.20;81.30
13482;DHT22;6813;60.352;15.746;2022-07-15T15:37:56;16.30;82.40
13482;DHT22;6813;60.352;15.746;2022-07-15T15:40:22;16.30;83.00
13482;DHT22;6813;60.352;15.746;2022-07-15T15:42:48;16.40;83.10
13482;DHT22;6813;60.352;15.746;2022-07-15T15:45:14;16.60;82.80
13482;DHT22;6813;60.352;15.746;2022-07-15T15:47:40;16.60;81.50
13482;DHT22;6813;60.352;15.746;2022-07-15T15:50:06;16.70;81.70
13482;DHT22;6813;60.352;15.746;2022-07-15T15:52:32;16.70;81.10
13482;DHT22;6813;60.352;15.746;2022-07-15T15:54:58;16.70;80.40
13482;DHT22;6813;60.352;15.746;2022-07-15T15:57:24;16.60;80.70
13482;DHT22;6813;60.352;15.746;2022-07-15T15:59:50;16.40;83.20
13482;DHT22;6813;60.352;15.746;2022-07-15T16:02:15;16.40;81.90
13482;DHT22;6813;60.352;15.746;2022-07-15T16:04:41;16.40;81.00
13482;DHT22;6813;60.352;15.746;2022-07-15T16:07:07;16.30;80.50
13482;DHT22;6813;60.352;15.746;2022-07-15T16:09:33;16.20;79.70
13482;DHT22;6813;60.352;15.746;2022-07-15T16:11:59;16.20;80.30
13482;DHT22;6813;60.352;15.746;2022-07-15T16:14:25;16.20;80.20
13482;DHT22;6813;60.352;15.746;2022-07-15T16:16:51;16.00;81.00
13482;DHT22;6813;60.352;15.746;2022-07-15T16:19:17;16.00;80.80
13482;DHT22;6813;60.352;15.746;2022-07-15T16:21:42;16.10;81.90